createdAt,value
2022-11-01T00:03:07.133Z,100261.72
2022-11-01T00:08:08.590Z,100259.13
2022-11-01T00:13:10.118Z,100251.03
2022-11-01T00:18:11.507Z,100233.09
2022-11-01T00:23:13.042Z,100235.75
2022-11-01T00:28:14.494Z,100228.03
2022-11-01T00:33:15.898Z,100215.44
2022-11-01T00:38:18.235Z,100213.31
2022-11-01T00:48:21.142Z,100190.28
2022-11-01T00:53:22.654Z,100203.78
2022-11-01T00:58:24.060Z,100202.50
2022-11-01T01:03:25.879Z,100194.47
2022-11-01T01:08:28.357Z,100204.47
2022-11-01T01:13:29.816Z,100198.94
2022-11-01T01:18:31.351Z,100208.69
2022-11-01T01:23:33.063Z,100196.59
2022-11-01T01:28:37.631Z,100199.16
2022-11-01T01:33:43.091Z,100203.41
2022-11-01T01:38:44.736Z,100199.47
2022-11-01T01:43:46.491Z,100200.63
2022-11-01T01:48:53.286Z,100190.84
2022-11-01T01:53:56.706Z,100178.94
2022-11-01T01:59:10.040Z,100185.22
2022-11-01T02:04:25.159Z,100195.94
2022-11-01T02:09:29.436Z,100185.75
2022-11-01T02:14:33.336Z,100183.09
2022-11-01T02:20:11.635Z,100196.66
2022-11-01T02:25:51.079Z,100208.13
2022-11-01T02:31:26.663Z,100198.72
2022-11-01T02:36:37.877Z,100195.69
2022-11-01T02:41:47.314Z,100211.22
2022-11-01T02:46:48.851Z,100206.78
2022-11-01T02:51:52.588Z,100205.78
2022-11-01T02:56:56.403Z,100209.13
2022-11-01T03:02:05.512Z,100212.13
2022-11-01T03:07:11.829Z,100216.59
2022-11-01T03:12:22.542Z,100217.66
2022-11-01T03:17:32.755Z,100229.63
2022-11-01T03:22:46.026Z,100225.25
2022-11-01T03:27:48.013Z,100229.88
2022-11-01T03:32:53.384Z,100237.84
2022-11-01T03:38:00.415Z,100230.25
2022-11-01T03:43:07.085Z,100228.59
2022-11-01T03:48:08.533Z,100228.97
2022-11-01T03:53:09.891Z,100227.81
2022-11-01T03:58:11.677Z,100219.63
2022-11-01T04:03:13.654Z,100226.69
2022-11-01T04:08:15.131Z,100239.44
2022-11-01T04:13:16.658Z,100242.88
2022-11-01T04:18:20.025Z,100251.38
2022-11-01T04:23:21.571Z,100248.03
2022-11-01T04:28:23.060Z,100262.03
2022-11-01T04:33:24.613Z,100276.16
2022-11-01T04:38:26.086Z,100301.94
2022-11-01T04:43:27.578Z,100300.59
2022-11-01T04:48:28.954Z,100302.28
2022-11-01T04:53:30.500Z,100304.53
2022-11-01T04:58:32.583Z,100307.72
2022-11-01T05:03:35.064Z,100314.06
2022-11-01T05:08:36.739Z,100323.00
2022-11-01T05:13:38.206Z,100331.94
2022-11-01T05:18:42.389Z,100344.00
2022-11-01T05:23:43.796Z,100340.13
2022-11-01T05:28:45.175Z,100330.69
2022-11-01T05:33:46.613Z,100337.97
2022-11-01T05:38:48.092Z,100332.75
2022-11-01T05:43:49.574Z,100346.81
2022-11-01T05:48:51.021Z,100353.78
2022-11-01T05:53:52.507Z,100357.59
2022-11-01T05:58:53.922Z,100363.38
2022-11-01T06:03:55.342Z,100368.44
2022-11-01T06:08:57.734Z,100367.28
2022-11-01T06:13:59.575Z,100383.91
2022-11-01T06:19:01.082Z,100380.72
2022-11-01T06:24:02.508Z,100398.81
2022-11-01T06:29:04.335Z,100396.63
2022-11-01T06:34:05.766Z,100406.19
2022-11-01T06:39:07.244Z,100420.97
2022-11-01T06:44:08.625Z,100430.38
2022-11-01T06:49:12.402Z,100438.81
2022-11-01T06:54:16.327Z,100442.69
2022-11-01T06:59:17.717Z,100451.19
2022-11-01T07:04:19.172Z,100459.91
2022-11-01T07:09:20.682Z,100469.78
2022-11-01T07:14:22.128Z,100480.41
2022-11-01T07:19:23.536Z,100487.25
2022-11-01T07:24:25.019Z,100492.28
2022-11-01T07:29:26.407Z,100498.09
2022-11-01T07:34:27.882Z,100509.81
2022-11-01T07:39:29.585Z,100515.44
2022-11-01T07:44:31.008Z,100495.63
2022-11-01T07:49:32.479Z,100506.31
2022-11-01T07:54:33.887Z,100508.50
2022-11-01T07:59:35.406Z,100514.91
2022-11-01T08:04:36.883Z,100512.72
2022-11-01T08:09:38.277Z,100532.47
2022-11-01T08:14:39.659Z,100536.16
2022-11-01T08:19:41.081Z,100549.72
2022-11-01T08:24:42.500Z,100550.31
2022-11-01T08:29:43.941Z,100561.03
2022-11-01T08:34:45.468Z,100570.75
2022-11-01T08:39:47.048Z,100580.22
2022-11-01T08:44:48.549Z,100577.44
2022-11-01T08:49:49.939Z,100599.66
2022-11-01T08:54:51.408Z,100610.34
2022-11-01T08:59:52.983Z,100616.41
2022-11-01T09:04:54.404Z,100627.84
2022-11-01T09:09:55.814Z,100638.41
2022-11-01T09:14:57.328Z,100633.38
2022-11-01T09:19:58.839Z,100641.09
2022-11-01T09:25:00.322Z,100650.97
2022-11-01T09:30:02.274Z,100659.47
2022-11-01T09:35:03.975Z,100655.13
2022-11-01T09:40:06.459Z,100651.38
2022-11-01T09:45:17.466Z,100656.19
2022-11-01T09:50:25.059Z,100661.16
2022-11-01T09:56:06.885Z,100672.19
2022-11-01T10:01:11.419Z,100675.94
2022-11-01T10:06:19.687Z,100688.44
2022-11-01T10:11:21.357Z,100689.72
2022-11-01T10:16:40.060Z,100684.72
2022-11-01T10:21:53.290Z,100676.75
2022-11-01T10:27:18.882Z,100678.16
2022-11-01T10:32:34.983Z,100686.84
2022-11-01T10:37:57.333Z,100676.47
2022-11-01T10:43:13.643Z,100676.59
2022-11-01T10:48:42.185Z,100668.47
2022-11-01T10:53:48.433Z,100671.38
2022-11-01T10:59:10.533Z,100674.84
2022-11-01T11:04:15.582Z,100685.38
2022-11-01T11:09:35.277Z,100681.75
2022-11-01T11:14:37.574Z,100698.56
2022-11-01T11:19:39.385Z,100696.19
2022-11-01T11:24:43.321Z,100698.06
2022-11-01T11:29:51.735Z,100706.06
2022-11-01T11:34:57.506Z,100712.50
2022-11-01T11:40:02.464Z,100706.84
2022-11-01T11:45:29.001Z,100693.47
2022-11-01T11:50:33.680Z,100704.94
2022-11-01T11:55:39.800Z,100695.25
2022-11-01T12:00:46.526Z,100687.16
2022-11-01T12:06:06.187Z,100690.97
2022-11-01T12:11:07.702Z,100687.38
2022-11-01T12:16:15.302Z,100687.75
2022-11-01T12:21:23.414Z,100683.50
2022-11-01T12:26:27.128Z,100674.34
2022-11-01T12:31:31.623Z,100684.81
2022-11-01T12:36:44.264Z,100690.22
2022-11-01T12:41:57.123Z,100689.84
2022-11-01T12:47:05.885Z,100667.22
2022-11-01T12:52:43.393Z,100677.06
2022-11-01T12:57:45.170Z,100680.13
2022-11-01T13:03:10.859Z,100679.00
2022-11-01T13:08:20.937Z,100684.06
2022-11-01T13:13:41.853Z,100683.56
2022-11-01T13:18:55.884Z,100680.03
2022-11-01T13:24:07.536Z,100672.81
2022-11-01T13:29:26.941Z,100668.19
2022-11-01T13:34:47.646Z,100673.97
2022-11-01T13:39:58.094Z,100663.78
2022-11-01T13:45:21.401Z,100681.47
2022-11-01T13:51:07.760Z,100680.88
2022-11-01T13:56:12.855Z,100684.34
2022-11-01T14:01:33.725Z,100676.22
2022-11-01T14:06:37.550Z,100687.53
2022-11-01T14:11:41.730Z,100681.41
2022-11-01T14:16:43.277Z,100690.50
2022-11-01T14:21:46.996Z,100683.69
2022-11-01T14:27:00.471Z,100691.13
2022-11-01T14:32:02.609Z,100699.22
2022-11-01T14:37:15.898Z,100694.78
2022-11-01T14:42:19.455Z,100696.75
2022-11-01T14:47:39.202Z,100696.78
2022-11-01T14:52:50.831Z,100708.28
2022-11-01T14:58:19.921Z,100703.03
2022-11-01T15:03:22.704Z,100696.16
2022-11-01T15:08:28.718Z,100715.56
2022-11-01T15:13:34.079Z,100723.28
2022-11-01T15:18:39.890Z,100712.53
2022-11-01T15:23:45.884Z,100722.34
2022-11-01T15:29:02.236Z,100738.06
2022-11-01T15:34:19.821Z,100735.81
2022-11-01T15:39:24.092Z,100739.44
2022-11-01T15:44:26.682Z,100731.34
2022-11-01T15:49:41.307Z,100738.81
2022-11-01T15:54:47.526Z,100746.22
2022-11-01T15:59:54.873Z,100747.06
2022-11-01T16:04:57.325Z,100761.03
2022-11-01T16:10:01.495Z,100756.94
2022-11-01T16:15:17.954Z,100758.31
2022-11-01T16:20:28.709Z,100768.34
2022-11-01T16:25:32.167Z,100761.38
2022-11-01T16:30:44.304Z,100777.94
2022-11-01T16:35:47.402Z,100780.53
2022-11-01T16:40:54.522Z,100785.84
2022-11-01T16:45:56.977Z,100786.34
2022-11-01T16:51:00.202Z,100795.81
2022-11-01T16:56:35.711Z,100798.69
2022-11-01T17:01:37.789Z,100808.44
2022-11-01T17:06:39.579Z,100804.72
2022-11-01T17:11:46.386Z,100818.94
2022-11-01T17:16:51.068Z,100821.06
2022-11-01T17:21:52.882Z,100832.06
2022-11-01T17:26:56.527Z,100837.09
2022-11-01T17:31:58.538Z,100841.41
2022-11-01T17:37:00.223Z,100837.97
2022-11-01T17:42:01.686Z,100842.09
2022-11-01T17:47:03.218Z,100841.91
2022-11-01T17:52:04.790Z,100849.25
2022-11-01T17:57:06.188Z,100857.19
2022-11-01T18:02:09.616Z,100850.13
2022-11-01T18:07:11.899Z,100852.53
2022-11-01T18:12:39.293Z,100856.25
2022-11-01T18:18:12.237Z,100858.78
2022-11-01T18:23:17.846Z,100864.28
2022-11-01T18:28:27.592Z,100866.69
2022-11-01T18:34:06.480Z,100863.81
2022-11-01T18:39:55.821Z,100871.75
2022-11-01T18:44:59.495Z,100866.69
2022-11-01T18:50:04.732Z,100853.34
2022-11-01T18:55:12.118Z,100854.41
2022-11-01T19:00:14.032Z,100859.16
2022-11-01T19:05:18.092Z,100861.78
2022-11-01T19:10:21.188Z,100859.94
2022-11-01T19:15:28.541Z,100872.19
2022-11-01T19:20:40.477Z,100863.59
2022-11-01T19:25:42.989Z,100855.94
2022-11-01T19:30:52.083Z,100850.28
2022-11-01T19:35:55.912Z,100852.25
2022-11-01T19:40:57.629Z,100841.16
2022-11-01T19:45:59.133Z,100842.31
2022-11-01T19:51:00.730Z,100844.34
2022-11-01T19:56:06.350Z,100846.88
2022-11-01T20:01:08.517Z,100852.25
2022-11-01T20:06:30.322Z,100858.00
2022-11-01T20:11:32.845Z,100854.75
2022-11-01T20:16:34.271Z,100862.22
2022-11-01T20:21:35.828Z,100863.69
2022-11-01T20:26:37.293Z,100866.88
2022-11-01T20:31:39.009Z,100877.03
2022-11-01T20:36:40.536Z,100879.34
2022-11-01T20:41:42.101Z,100877.97
2022-11-01T20:46:43.512Z,100880.84
2022-11-01T20:51:44.955Z,100883.13
2022-11-01T20:56:46.419Z,100881.94
2022-11-01T21:01:48.108Z,100885.44
2022-11-01T21:06:49.767Z,100885.22
2022-11-01T21:11:51.262Z,100890.00
2022-11-01T21:16:56.002Z,100883.72
2022-11-01T21:21:58.873Z,100871.50
2022-11-01T21:27:12.599Z,100876.06
2022-11-01T21:32:30.322Z,100880.88
2022-11-01T21:37:31.742Z,100887.34
2022-11-01T21:42:34.348Z,100880.91
2022-11-01T21:47:35.842Z,100873.03
2022-11-01T21:52:37.251Z,100891.59
2022-11-01T21:57:38.739Z,100884.03
2022-11-01T22:02:40.489Z,100889.38
2022-11-01T22:07:42.153Z,100879.78
2022-11-01T22:12:43.655Z,100891.56
2022-11-01T22:17:45.053Z,100893.72
2022-11-01T22:22:46.510Z,100891.00
2022-11-01T22:27:47.943Z,100886.09
2022-11-01T22:32:49.414Z,100892.72
2022-11-01T22:37:50.881Z,100893.16
2022-11-01T22:42:58.027Z,100886.16
2022-11-01T22:47:59.447Z,100886.69
2022-11-01T22:53:01.108Z,100885.34
2022-11-01T22:58:17.618Z,100890.72
2022-11-01T23:03:39.677Z,100894.81
2022-11-01T23:08:41.181Z,100887.47
2022-11-01T23:13:42.581Z,100882.91
2022-11-01T23:18:44.746Z,100885.13
2022-11-01T23:23:46.905Z,100874.63
2022-11-01T23:28:52.850Z,100871.50
2022-11-01T23:33:54.984Z,100872.34
2022-11-01T23:39:06.346Z,100867.06
2022-11-01T23:44:28.356Z,100865.50
2022-11-01T23:49:32.865Z,100859.25
2022-11-01T23:54:38.550Z,100865.34
2022-11-01T23:59:39.954Z,100852.34
